<?xml version="1.0" encoding="UTF-8" standalone="no" ?>
<gpx xmlns="http://www.topografix.com/GPX/1/1" xmlns:xsi="http://www.w3.org/2001/XMLSchema-instance" xsi:schemaLocation="http://www.topografix.com/GPX/1/1 http://www.topografix.com/GPX/1/1/gpx.xsd" version="1.1" creator="VisuGPX - https://www.visugpx.com">
  <metadata>
    <name>13894846-Parcours 2022 10 kms</name>
  </metadata>
  <trk>
    <name><![CDATA[13894846-Parcours 2022 10 kms]]></name>
    <trkseg>
      <trkpt lat="46.5951" lon="-1.45337">
        <ele>54</ele>
        <time>2022-02-27T21:17:25Z</time>
      </trkpt>
      <trkpt lat="46.59442" lon="-1.45364">
        <ele>55</ele>
        <time>2022-02-27T21:18:59Z</time>
      </trkpt>
      <trkpt lat="46.59446" lon="-1.45475">
        <ele>57</ele>
        <time>2022-02-27T21:20:41Z</time>
      </trkpt>
      <trkpt lat="46.59435" lon="-1.45486">
        <ele>57</ele>
        <time>2022-02-27T21:20:59Z</time>
      </trkpt>
      <trkpt lat="46.59446" lon="-1.45582">
        <ele>60</ele>
        <time>2022-02-27T21:22:28Z</time>
      </trkpt>
      <trkpt lat="46.59445" lon="-1.45642">
        <ele>60</ele>
        <time>2022-02-27T21:23:23Z</time>
      </trkpt>
      <trkpt lat="46.59426" lon="-1.45651">
        <ele>60</ele>
        <time>2022-02-27T21:23:50Z</time>
      </trkpt>
      <trkpt lat="46.59445" lon="-1.45751">
        <ele>61</ele>
        <time>2022-02-27T21:25:25Z</time>
      </trkpt>
      <trkpt lat="46.59455" lon="-1.45748">
        <ele>61</ele>
        <time>2022-02-27T21:25:39Z</time>
      </trkpt>
      <trkpt lat="46.59447" lon="-1.45887">
        <ele>65</ele>
        <time>2022-02-27T21:27:46Z</time>
      </trkpt>
      <trkpt lat="46.59479" lon="-1.45894">
        <ele>64</ele>
        <time>2022-02-27T21:28:30Z</time>
      </trkpt>
      <trkpt lat="46.59487" lon="-1.45862">
        <ele>64</ele>
        <time>2022-02-27T21:29:01Z</time>
      </trkpt>
      <trkpt lat="46.59539" lon="-1.45862">
        <ele>64</ele>
        <time>2022-02-27T21:30:10Z</time>
      </trkpt>
      <trkpt lat="46.59584" lon="-1.45932">
        <ele>65</ele>
        <time>2022-02-27T21:31:38Z</time>
      </trkpt>
      <trkpt lat="46.59595" lon="-1.45966">
        <ele>66</ele>
        <time>2022-02-27T21:32:13Z</time>
      </trkpt>
      <trkpt lat="46.596" lon="-1.46074">
        <ele>67</ele>
        <time>2022-02-27T21:33:52Z</time>
      </trkpt>
      <trkpt lat="46.59589" lon="-1.46135">
        <ele>68</ele>
        <time>2022-02-27T21:34:50Z</time>
      </trkpt>
      <trkpt lat="46.59644" lon="-1.46121">
        <ele>67</ele>
        <time>2022-02-27T21:36:04Z</time>
      </trkpt>
      <trkpt lat="46.59861" lon="-1.45977">
        <ele>67</ele>
        <time>2022-02-27T21:41:22Z</time>
      </trkpt>
      <trkpt lat="46.59919" lon="-1.45934">
        <ele>67</ele>
        <time>2022-02-27T21:42:49Z</time>
      </trkpt>
      <trkpt lat="46.59987" lon="-1.45872">
        <ele>68</ele>
        <time>2022-02-27T21:44:36Z</time>
      </trkpt>
      <trkpt lat="46.60044" lon="-1.45917">
        <ele>69</ele>
        <time>2022-02-27T21:46:03Z</time>
      </trkpt>
      <trkpt lat="46.60188" lon="-1.45923">
        <ele>67</ele>
        <time>2022-02-27T21:49:15Z</time>
      </trkpt>
      <trkpt lat="46.60268" lon="-1.45935">
        <ele>65</ele>
        <time>2022-02-27T21:51:02Z</time>
      </trkpt>
      <trkpt lat="46.60322" lon="-1.45912">
        <ele>65</ele>
        <time>2022-02-27T21:52:18Z</time>
      </trkpt>
      <trkpt lat="46.60372" lon="-1.45984">
        <ele>62</ele>
        <time>2022-02-27T21:53:51Z</time>
      </trkpt>
      <trkpt lat="46.60399" lon="-1.45997">
        <ele>61</ele>
        <time>2022-02-27T21:54:29Z</time>
      </trkpt>
      <trkpt lat="46.60455" lon="-1.45994">
        <ele>60</ele>
        <time>2022-02-27T21:55:44Z</time>
      </trkpt>
      <trkpt lat="46.605" lon="-1.46029">
        <ele>60</ele>
        <time>2022-02-27T21:56:52Z</time>
      </trkpt>
      <trkpt lat="46.60624" lon="-1.46191">
        <ele>54</ele>
        <time>2022-02-27T22:00:35Z</time>
      </trkpt>
      <trkpt lat="46.60645" lon="-1.4618">
        <ele>53</ele>
        <time>2022-02-27T22:01:04Z</time>
      </trkpt>
      <trkpt lat="46.60861" lon="-1.46593">
        <ele>61</ele>
        <time>2022-02-27T22:09:00Z</time>
      </trkpt>
      <trkpt lat="46.60847" lon="-1.46635">
        <ele>62</ele>
        <time>2022-02-27T22:09:43Z</time>
      </trkpt>
      <trkpt lat="46.60856" lon="-1.46643">
        <ele>62</ele>
        <time>2022-02-27T22:09:57Z</time>
      </trkpt>
      <trkpt lat="46.60878" lon="-1.46673">
        <ele>62</ele>
        <time>2022-02-27T22:10:37Z</time>
      </trkpt>
      <trkpt lat="46.60898" lon="-1.46742">
        <ele>63</ele>
        <time>2022-02-27T22:11:46Z</time>
      </trkpt>
      <trkpt lat="46.60903" lon="-1.46834">
        <ele>62</ele>
        <time>2022-02-27T22:13:11Z</time>
      </trkpt>
      <trkpt lat="46.61052" lon="-1.46854">
        <ele>63</ele>
        <time>2022-02-27T22:16:30Z</time>
      </trkpt>
      <trkpt lat="46.61161" lon="-1.46963">
        <ele>66</ele>
        <time>2022-02-27T22:19:27Z</time>
      </trkpt>
      <trkpt lat="46.61149" lon="-1.46818">
        <ele>66</ele>
        <time>2022-02-27T22:21:41Z</time>
      </trkpt>
      <trkpt lat="46.61152" lon="-1.46662">
        <ele>67</ele>
        <time>2022-02-27T22:24:04Z</time>
      </trkpt>
      <trkpt lat="46.61139" lon="-1.46569">
        <ele>65</ele>
        <time>2022-02-27T22:25:31Z</time>
      </trkpt>
      <trkpt lat="46.61129" lon="-1.4647">
        <ele>65</ele>
        <time>2022-02-27T22:27:02Z</time>
      </trkpt>
      <trkpt lat="46.61135" lon="-1.4637">
        <ele>65</ele>
        <time>2022-02-27T22:28:34Z</time>
      </trkpt>
      <trkpt lat="46.6113" lon="-1.46016">
        <ele>59</ele>
        <time>2022-02-27T22:33:59Z</time>
      </trkpt>
      <trkpt lat="46.61109" lon="-1.45698">
        <ele>50</ele>
        <time>2022-02-27T22:38:52Z</time>
      </trkpt>
      <trkpt lat="46.61182" lon="-1.45672">
        <ele>50</ele>
        <time>2022-02-27T22:40:32Z</time>
      </trkpt>
      <trkpt lat="46.61182" lon="-1.4562">
        <ele>49</ele>
        <time>2022-02-27T22:41:20Z</time>
      </trkpt>
      <trkpt lat="46.61231" lon="-1.45608">
        <ele>49</ele>
        <time>2022-02-27T22:42:26Z</time>
      </trkpt>
      <trkpt lat="46.61243" lon="-1.45354">
        <ele>46</ele>
        <time>2022-02-27T22:46:20Z</time>
      </trkpt>
      <trkpt lat="46.6147" lon="-1.45299">
        <ele>52</ele>
        <time>2022-02-27T22:51:27Z</time>
      </trkpt>
      <trkpt lat="46.61686" lon="-1.45198">
        <ele>54</ele>
        <time>2022-02-27T22:56:29Z</time>
      </trkpt>
      <trkpt lat="46.61667" lon="-1.45056">
        <ele>53</ele>
        <time>2022-02-27T22:58:42Z</time>
      </trkpt>
      <trkpt lat="46.6168" lon="-1.44987">
        <ele>51</ele>
        <time>2022-02-27T22:59:48Z</time>
      </trkpt>
      <trkpt lat="46.61719" lon="-1.44921">
        <ele>50</ele>
        <time>2022-02-27T23:01:07Z</time>
      </trkpt>
      <trkpt lat="46.61721" lon="-1.44818">
        <ele>52</ele>
        <time>2022-02-27T23:02:42Z</time>
      </trkpt>
      <trkpt lat="46.61627" lon="-1.44762">
        <ele>48</ele>
        <time>2022-02-27T23:04:57Z</time>
      </trkpt>
      <trkpt lat="46.61563" lon="-1.44762">
        <ele>46</ele>
        <time>2022-02-27T23:06:23Z</time>
      </trkpt>
      <trkpt lat="46.61493" lon="-1.44734">
        <ele>43</ele>
        <time>2022-02-27T23:08:00Z</time>
      </trkpt>
      <trkpt lat="46.61445" lon="-1.44779">
        <ele>43</ele>
        <time>2022-02-27T23:09:16Z</time>
      </trkpt>
      <trkpt lat="46.61393" lon="-1.4474">
        <ele>44</ele>
        <time>2022-02-27T23:10:34Z</time>
      </trkpt>
      <trkpt lat="46.61378" lon="-1.44672">
        <ele>46</ele>
        <time>2022-02-27T23:11:39Z</time>
      </trkpt>
      <trkpt lat="46.61414" lon="-1.44606">
        <ele>45</ele>
        <time>2022-02-27T23:12:57Z</time>
      </trkpt>
      <trkpt lat="46.61379" lon="-1.44508">
        <ele>47</ele>
        <time>2022-02-27T23:14:38Z</time>
      </trkpt>
      <trkpt lat="46.61375" lon="-1.4448">
        <ele>47</ele>
        <time>2022-02-27T23:15:04Z</time>
      </trkpt>
      <trkpt lat="46.61414" lon="-1.44473">
        <ele>45</ele>
        <time>2022-02-27T23:15:56Z</time>
      </trkpt>
      <trkpt lat="46.61398" lon="-1.44388">
        <ele>46</ele>
        <time>2022-02-27T23:17:17Z</time>
      </trkpt>
      <trkpt lat="46.61367" lon="-1.44385">
        <ele>47</ele>
        <time>2022-02-27T23:17:59Z</time>
      </trkpt>
      <trkpt lat="46.6136" lon="-1.4435">
        <ele>46</ele>
        <time>2022-02-27T23:18:32Z</time>
      </trkpt>
      <trkpt lat="46.61394" lon="-1.44306">
        <ele>45</ele>
        <time>2022-02-27T23:19:33Z</time>
      </trkpt>
      <trkpt lat="46.61414" lon="-1.44232">
        <ele>44</ele>
        <time>2022-02-27T23:20:46Z</time>
      </trkpt>
      <trkpt lat="46.61433" lon="-1.44203">
        <ele>44</ele>
        <time>2022-02-27T23:21:22Z</time>
      </trkpt>
      <trkpt lat="46.61379" lon="-1.44042">
        <ele>42</ele>
        <time>2022-02-27T23:24:07Z</time>
      </trkpt>
      <trkpt lat="46.61375" lon="-1.43969">
        <ele>43</ele>
        <time>2022-02-27T23:25:14Z</time>
      </trkpt>
      <trkpt lat="46.61342" lon="-1.43873">
        <ele>46</ele>
        <time>2022-02-27T23:26:52Z</time>
      </trkpt>
      <trkpt lat="46.61316" lon="-1.43826">
        <ele>46</ele>
        <time>2022-02-27T23:27:48Z</time>
      </trkpt>
      <trkpt lat="46.6127" lon="-1.43852">
        <ele>46</ele>
        <time>2022-02-27T23:28:53Z</time>
      </trkpt>
      <trkpt lat="46.61239" lon="-1.4388">
        <ele>46</ele>
        <time>2022-02-27T23:29:42Z</time>
      </trkpt>
      <trkpt lat="46.61202" lon="-1.43784">
        <ele>45</ele>
        <time>2022-02-27T23:31:23Z</time>
      </trkpt>
      <trkpt lat="46.61153" lon="-1.43694">
        <ele>46</ele>
        <time>2022-02-27T23:33:08Z</time>
      </trkpt>
      <trkpt lat="46.61061" lon="-1.43612">
        <ele>45</ele>
        <time>2022-02-27T23:35:32Z</time>
      </trkpt>
      <trkpt lat="46.60988" lon="-1.43494">
        <ele>52</ele>
        <time>2022-02-27T23:37:58Z</time>
      </trkpt>
      <trkpt lat="46.60848" lon="-1.43484">
        <ele>53</ele>
        <time>2022-02-27T23:41:05Z</time>
      </trkpt>
      <trkpt lat="46.60766" lon="-1.43535">
        <ele>56</ele>
        <time>2022-02-27T23:43:04Z</time>
      </trkpt>
      <trkpt lat="46.60671" lon="-1.43567">
        <ele>63</ele>
        <time>2022-02-27T23:45:14Z</time>
      </trkpt>
      <trkpt lat="46.60569" lon="-1.43631">
        <ele>65</ele>
        <time>2022-02-27T23:47:42Z</time>
      </trkpt>
      <trkpt lat="46.6051" lon="-1.437">
        <ele>63</ele>
        <time>2022-02-27T23:49:23Z</time>
      </trkpt>
      <trkpt lat="46.60557" lon="-1.43853">
        <ele>57</ele>
        <time>2022-02-27T23:51:57Z</time>
      </trkpt>
      <trkpt lat="46.60612" lon="-1.44057">
        <ele>52</ele>
        <time>2022-02-27T23:55:18Z</time>
      </trkpt>
      <trkpt lat="46.60673" lon="-1.44256">
        <ele>45</ele>
        <time>2022-02-27T23:58:38Z</time>
      </trkpt>
      <trkpt lat="46.60667" lon="-1.44383">
        <ele>47</ele>
        <time>2022-02-28T00:00:34Z</time>
      </trkpt>
      <trkpt lat="46.60654" lon="-1.44387">
        <ele>47</ele>
        <time>2022-02-28T00:00:52Z</time>
      </trkpt>
      <trkpt lat="46.6065" lon="-1.44426">
        <ele>47</ele>
        <time>2022-02-28T00:01:28Z</time>
      </trkpt>
      <trkpt lat="46.60641" lon="-1.44456">
        <ele>48</ele>
        <time>2022-02-28T00:01:58Z</time>
      </trkpt>
      <trkpt lat="46.6063" lon="-1.44438">
        <ele>48</ele>
        <time>2022-02-28T00:02:20Z</time>
      </trkpt>
      <trkpt lat="46.6063" lon="-1.44385">
        <ele>47</ele>
        <time>2022-02-28T00:03:09Z</time>
      </trkpt>
      <trkpt lat="46.60619" lon="-1.4437">
        <ele>47</ele>
        <time>2022-02-28T00:03:29Z</time>
      </trkpt>
      <trkpt lat="46.60582" lon="-1.4439">
        <ele>47</ele>
        <time>2022-02-28T00:04:22Z</time>
      </trkpt>
      <trkpt lat="46.60555" lon="-1.44401">
        <ele>47</ele>
        <time>2022-02-28T00:04:59Z</time>
      </trkpt>
      <trkpt lat="46.60527" lon="-1.44424">
        <ele>47</ele>
        <time>2022-02-28T00:05:42Z</time>
      </trkpt>
      <trkpt lat="46.60492" lon="-1.44431">
        <ele>46</ele>
        <time>2022-02-28T00:06:29Z</time>
      </trkpt>
      <trkpt lat="46.60455" lon="-1.4445">
        <ele>47</ele>
        <time>2022-02-28T00:07:21Z</time>
      </trkpt>
      <trkpt lat="46.60438" lon="-1.44449">
        <ele>47</ele>
        <time>2022-02-28T00:07:44Z</time>
      </trkpt>
      <trkpt lat="46.60433" lon="-1.44469">
        <ele>48</ele>
        <time>2022-02-28T00:08:04Z</time>
      </trkpt>
      <trkpt lat="46.60423" lon="-1.44526">
        <ele>50</ele>
        <time>2022-02-28T00:08:58Z</time>
      </trkpt>
      <trkpt lat="46.60404" lon="-1.44557">
        <ele>51</ele>
        <time>2022-02-28T00:09:36Z</time>
      </trkpt>
      <trkpt lat="46.604" lon="-1.4467">
        <ele>53</ele>
        <time>2022-02-28T00:11:19Z</time>
      </trkpt>
      <trkpt lat="46.60372" lon="-1.44736">
        <ele>55</ele>
        <time>2022-02-28T00:12:31Z</time>
      </trkpt>
      <trkpt lat="46.60339" lon="-1.4479">
        <ele>56</ele>
        <time>2022-02-28T00:13:37Z</time>
      </trkpt>
      <trkpt lat="46.60297" lon="-1.44853">
        <ele>58</ele>
        <time>2022-02-28T00:14:57Z</time>
      </trkpt>
      <trkpt lat="46.60283" lon="-1.44859">
        <ele>59</ele>
        <time>2022-02-28T00:15:17Z</time>
      </trkpt>
      <trkpt lat="46.6025" lon="-1.44828">
        <ele>59</ele>
        <time>2022-02-28T00:16:09Z</time>
      </trkpt>
      <trkpt lat="46.6023" lon="-1.44825">
        <ele>59</ele>
        <time>2022-02-28T00:16:36Z</time>
      </trkpt>
      <trkpt lat="46.60216" lon="-1.44839">
        <ele>59</ele>
        <time>2022-02-28T00:16:59Z</time>
      </trkpt>
      <trkpt lat="46.60185" lon="-1.44868">
        <ele>60</ele>
        <time>2022-02-28T00:17:48Z</time>
      </trkpt>
      <trkpt lat="46.60137" lon="-1.44906">
        <ele>60</ele>
        <time>2022-02-28T00:19:01Z</time>
      </trkpt>
      <trkpt lat="46.60125" lon="-1.44928">
        <ele>60</ele>
        <time>2022-02-28T00:19:26Z</time>
      </trkpt>
      <trkpt lat="46.60081" lon="-1.44906">
        <ele>59</ele>
        <time>2022-02-28T00:20:29Z</time>
      </trkpt>
      <trkpt lat="46.60061" lon="-1.44894">
        <ele>58</ele>
        <time>2022-02-28T00:20:57Z</time>
      </trkpt>
      <trkpt lat="46.60043" lon="-1.44899">
        <ele>57</ele>
        <time>2022-02-28T00:21:22Z</time>
      </trkpt>
      <trkpt lat="46.60034" lon="-1.44911">
        <ele>57</ele>
        <time>2022-02-28T00:21:38Z</time>
      </trkpt>
      <trkpt lat="46.60031" lon="-1.44938">
        <ele>57</ele>
        <time>2022-02-28T00:22:03Z</time>
      </trkpt>
      <trkpt lat="46.60015" lon="-1.4496">
        <ele>57</ele>
        <time>2022-02-28T00:22:33Z</time>
      </trkpt>
      <trkpt lat="46.59987" lon="-1.44968">
        <ele>56</ele>
        <time>2022-02-28T00:23:11Z</time>
      </trkpt>
      <trkpt lat="46.59953" lon="-1.4497">
        <ele>57</ele>
        <time>2022-02-28T00:23:56Z</time>
      </trkpt>
      <trkpt lat="46.59935" lon="-1.44993">
        <ele>58</ele>
        <time>2022-02-28T00:24:28Z</time>
      </trkpt>
      <trkpt lat="46.59914" lon="-1.45023">
        <ele>59</ele>
        <time>2022-02-28T00:25:07Z</time>
      </trkpt>
      <trkpt lat="46.59881" lon="-1.45049">
        <ele>59</ele>
        <time>2022-02-28T00:25:57Z</time>
      </trkpt>
      <trkpt lat="46.59824" lon="-1.45059">
        <ele>58</ele>
        <time>2022-02-28T00:27:14Z</time>
      </trkpt>
      <trkpt lat="46.59761" lon="-1.45071">
        <ele>56</ele>
        <time>2022-02-28T00:28:39Z</time>
      </trkpt>
      <trkpt lat="46.59755" lon="-1.44988">
        <ele>55</ele>
        <time>2022-02-28T00:29:55Z</time>
      </trkpt>
      <trkpt lat="46.59762" lon="-1.44956">
        <ele>54</ele>
        <time>2022-02-28T00:30:26Z</time>
      </trkpt>
      <trkpt lat="46.59775" lon="-1.44922">
        <ele>53</ele>
        <time>2022-02-28T00:31:02Z</time>
      </trkpt>
      <trkpt lat="46.59757" lon="-1.44879">
        <ele>53</ele>
        <time>2022-02-28T00:31:48Z</time>
      </trkpt>
      <trkpt lat="46.59738" lon="-1.44846">
        <ele>54</ele>
        <time>2022-02-28T00:32:27Z</time>
      </trkpt>
      <trkpt lat="46.59729" lon="-1.44836">
        <ele>54</ele>
        <time>2022-02-28T00:32:43Z</time>
      </trkpt>
      <trkpt lat="46.59705" lon="-1.44846">
        <ele>55</ele>
        <time>2022-02-28T00:33:16Z</time>
      </trkpt>
      <trkpt lat="46.59684" lon="-1.44844">
        <ele>55</ele>
        <time>2022-02-28T00:33:44Z</time>
      </trkpt>
      <trkpt lat="46.59625" lon="-1.44838">
        <ele>56</ele>
        <time>2022-02-28T00:35:03Z</time>
      </trkpt>
      <trkpt lat="46.59556" lon="-1.44839">
        <ele>57</ele>
        <time>2022-02-28T00:36:35Z</time>
      </trkpt>
      <trkpt lat="46.59487" lon="-1.44799">
        <ele>60</ele>
        <time>2022-02-28T00:38:14Z</time>
      </trkpt>
      <trkpt lat="46.59492" lon="-1.44841">
        <ele>59</ele>
        <time>2022-02-28T00:38:53Z</time>
      </trkpt>
      <trkpt lat="46.59498" lon="-1.44872">
        <ele>59</ele>
        <time>2022-02-28T00:39:23Z</time>
      </trkpt>
      <trkpt lat="46.59512" lon="-1.4489">
        <ele>58</ele>
        <time>2022-02-28T00:39:48Z</time>
      </trkpt>
      <trkpt lat="46.59515" lon="-1.44908">
        <ele>57</ele>
        <time>2022-02-28T00:40:05Z</time>
      </trkpt>
      <trkpt lat="46.59529" lon="-1.44931">
        <ele>56</ele>
        <time>2022-02-28T00:40:33Z</time>
      </trkpt>
      <trkpt lat="46.59541" lon="-1.44932">
        <ele>56</ele>
        <time>2022-02-28T00:40:49Z</time>
      </trkpt>
      <trkpt lat="46.59546" lon="-1.44942">
        <ele>56</ele>
        <time>2022-02-28T00:41:00Z</time>
      </trkpt>
      <trkpt lat="46.59545" lon="-1.44951">
        <ele>55</ele>
        <time>2022-02-28T00:41:09Z</time>
      </trkpt>
      <trkpt lat="46.59564" lon="-1.45049">
        <ele>52</ele>
        <time>2022-02-28T00:42:42Z</time>
      </trkpt>
      <trkpt lat="46.59501" lon="-1.45083">
        <ele>52</ele>
        <time>2022-02-28T00:44:12Z</time>
      </trkpt>
      <trkpt lat="46.59509" lon="-1.45111">
        <ele>52</ele>
        <time>2022-02-28T00:44:39Z</time>
      </trkpt>
      <trkpt lat="46.59519" lon="-1.45147">
        <ele>51</ele>
        <time>2022-02-28T00:45:15Z</time>
      </trkpt>
      <trkpt lat="46.59529" lon="-1.45147">
        <ele>51</ele>
        <time>2022-02-28T00:45:28Z</time>
      </trkpt>
      <trkpt lat="46.59538" lon="-1.45149">
        <ele>51</ele>
        <time>2022-02-28T00:45:40Z</time>
      </trkpt>
      <trkpt lat="46.59549" lon="-1.45159">
        <ele>52</ele>
        <time>2022-02-28T00:45:58Z</time>
      </trkpt>
      <trkpt lat="46.59556" lon="-1.45169">
        <ele>52</ele>
        <time>2022-02-28T00:46:11Z</time>
      </trkpt>
      <trkpt lat="46.59547" lon="-1.45181">
        <ele>52</ele>
        <time>2022-02-28T00:46:27Z</time>
      </trkpt>
      <trkpt lat="46.59537" lon="-1.45198">
        <ele>52</ele>
        <time>2022-02-28T00:46:48Z</time>
      </trkpt>
      <trkpt lat="46.59526" lon="-1.45209">
        <ele>52</ele>
        <time>2022-02-28T00:47:06Z</time>
      </trkpt>
      <trkpt lat="46.59518" lon="-1.45233">
        <ele>52</ele>
        <time>2022-02-28T00:47:30Z</time>
      </trkpt>
      <trkpt lat="46.59516" lon="-1.45253">
        <ele>53</ele>
        <time>2022-02-28T00:47:49Z</time>
      </trkpt>
      <trkpt lat="46.59522" lon="-1.4528">
        <ele>53</ele>
        <time>2022-02-28T00:48:15Z</time>
      </trkpt>
      <trkpt lat="46.59529" lon="-1.45306">
        <ele>54</ele>
        <time>2022-02-28T00:48:40Z</time>
      </trkpt>
      <trkpt lat="46.59535" lon="-1.45327">
        <ele>55</ele>
        <time>2022-02-28T00:49:01Z</time>
      </trkpt>
      <trkpt lat="46.59517" lon="-1.45334">
        <ele>54</ele>
        <time>2022-02-28T00:49:26Z</time>
      </trkpt>
    </trkseg>
  </trk>
</gpx>